Time;durP1;ratioP1;P1;durP2;ratioP2;P2;SDS_P1;SDS_P2;PMS_P1;PMS_P2;Temp;Humidity;BMP_temperature;BMP_pressure;BME280_temperature;BME280_humidity;BME280_pressure;Samples;Min_cycle;Max_cycle;Signal;HPM_P1;HPM_P2
2021/10/02 07:36:49;;;;;;;0.00;0.00;;;13.20;99.90;;;;;;6320706;22;20027;-86
2021/10/02 07:39:16;;;;;;;0.08;0.08;;;13.30;99.90;;;;;;6269067;22;20023;-87
2021/10/02 07:41:48;;;;;;;0.00;0.00;;;13.30;99.90;;;;;;6244500;22;20050;-90
2021/10/02 07:45:16;;;;;;;0.03;0.03;;;13.40;99.90;;;;;;6269783;22;20015;-89
2021/10/02 07:47:52;;;;;;;0.00;0.00;;;13.50;99.90;;;;;;6220484;22;20858;-90
2021/10/02 07:50:20;;;;;;;0.10;0.10;;;13.60;99.90;;;;;;6267965;22;20016;-90
2021/10/02 07:52:55;;;;;;;0.03;0.03;;;13.60;99.90;;;;;;6270205;22;20008;-89
2021/10/02 07:55:51;;;;;;;0.00;0.00;;;13.70;99.90;;;;;;6270779;22;20065;-90
2021/10/02 07:58:22;;;;;;;0.13;0.05;;;13.70;99.90;;;;;;6270007;22;20090;-89
2021/10/02 08:00:59;;;;;;;0.13;0.13;;;13.70;99.90;;;;;;6269923;22;20011;-90
2021/10/02 08:03:48;;;;;;;0.35;0.10;;;13.70;99.90;;;;;;6269505;22;20099;-90
2021/10/02 08:06:16;;;;;;;0.38;0.10;;;13.60;99.90;;;;;;6269176;22;20015;-90
2021/10/02 08:08:57;;;;;;;0.00;0.00;;;13.60;99.90;;;;;;6270637;22;20381;-90
2021/10/02 08:11:32;;;;;;;0.03;0.03;;;13.50;99.90;;;;;;6268932;22;20008;-90
2021/10/02 08:14:04;;;;;;;0.00;0.00;;;13.50;99.90;;;;;;6269570;22;20091;-90
2021/10/02 08:17:01;;;;;;;0.00;0.00;;;13.40;99.90;;;;;;6244939;22;20015;-89
2021/10/02 08:23:36;;;;;;;0.38;0.30;;;13.70;99.90;;;;;;6158256;23;20026;-91
2021/10/02 08:42:07;;;;;;;0.00;0.00;;;13.40;99.90;;;;;;6090261;23;20023;-91
2021/10/02 08:44:38;;;;;;;0.00;0.00;;;13.00;99.90;;;;;;6123722;23;20473;-90
2021/10/02 08:47:25;;;;;;;0.00;0.00;;;13.30;99.90;;;;;;6172525;23;20017;-91
2021/10/02 08:49:52;;;;;;;0.00;0.00;;;13.40;99.90;;;;;;6247509;23;20012;-90
2021/10/02 08:53:00;;;;;;;;;;;;;;;;;;;;;
2021/10/02 08:55:38;;;;;;;0.40;0.30;;;13.50;99.90;;;;;;6263127;23;20073;-89
2021/10/02 08:58:28;;;;;;;0.03;0.03;;;13.50;99.90;;;;;;6238920;23;20020;-90
2021/10/02 09:00:57;;;;;;;0.20;0.20;;;13.50;99.90;;;;;;6239115;23;20058;-89
2021/10/02 10:37:09;;;;;;;0.00;0.00;;;14.90;99.90;;;;;;6291621;22;20019;-82
2021/10/02 10:39:36;;;;;;;0.05;0.05;;;15.30;99.90;;;;;;6264497;23;20016;-83
2021/10/02 10:42:04;;;;;;;0.10;0.10;;;15.30;99.90;;;;;;6264004;23;20456;-82
2021/10/02 10:44:32;;;;;;;0.10;0.05;;;15.30;99.90;;;;;;6238973;23;20372;-82
2021/10/02 10:46:58;;;;;;;0.55;0.20;;;15.30;99.90;;;;;;6263344;23;20019;-82
2021/10/02 10:49:25;;;;;;;0.10;0.10;;;15.40;99.90;;;;;;6214144;23;20095;-83
2021/10/02 10:52:11;;;;;;;0.00;0.00;;;15.50;99.90;;;;;;6239102;23;20094;-87
2021/10/02 15:47:04;;;;;;;0.00;0.00;;;15.20;99.90;;;;;;6296954;22;20024;-93
2021/10/02 15:50:14;;;;;;;0.10;0.10;;;15.10;99.90;;;;;;6239448;23;20399;-93
2021/10/02 18:32:35;;;;;;;0.00;0.00;;;14.10;99.90;;;;;;6287686;23;20031;-90
2021/10/02 18:35:05;;;;;;;0.00;0.00;;;14.20;99.90;;;;;;6239645;23;20023;-89
2021/10/02 18:37:43;;;;;;;0.00;0.00;;;14.10;99.90;;;;;;6264910;23;20024;-91
2021/10/02 18:40:12;;;;;;;0.22;0.15;;;14.10;99.90;;;;;;6241435;23;20044;-93
2021/10/02 18:42:45;;;;;;;0.10;0.10;;;14.10;99.90;;;;;;6239473;23;20012;-92
2021/10/02 18:45:17;;;;;;;0.10;0.10;;;13.90;99.90;;;;;;6263730;23;20085;-91
2021/10/02 18:47:45;;;;;;;0.00;0.00;;;14.10;99.90;;;;;;6264773;23;20091;-91
2021/10/02 18:50:13;;;;;;;0.00;0.00;;;14.10;99.90;;;;;;6265492;23;20015;-90
2021/10/02 18:52:44;;;;;;;0.00;0.00;;;14.10;99.90;;;;;;6264280;23;20016;-91
2021/10/02 18:55:14;;;;;;;0.00;0.00;;;14.10;99.90;;;;;;6264934;23;20100;-91
2021/10/02 18:57:47;;;;;;;0.00;0.00;;;14.10;99.90;;;;;;6264009;23;20043;-91
2021/10/02 19:00:19;;;;;;;0.00;0.00;;;14.10;99.90;;;;;;6265070;23;20045;-90
2021/10/02 19:02:53;;;;;;;0.00;0.00;;;14.10;99.90;;;;;;6239404;22;20015;-91
2021/10/02 19:05:20;;;;;;;0.00;0.00;;;14.20;99.90;;;;;;6241402;23;20016;-91
2021/10/02 19:07:50;;;;;;;0.00;0.00;;;14.10;99.90;;;;;;6264298;23;20016;-90
2021/10/02 19:10:25;;;;;;;0.00;0.00;;;14.10;99.90;;;;;;6264682;23;20019;-91
2021/10/02 19:13:04;;;;;;;0.00;0.00;;;14.10;99.90;;;;;;6264764;23;20059;-90
2021/10/02 19:15:34;;;;;;;0.00;0.00;;;14.10;99.90;;;;;;6241284;23;20377;-91
2021/10/02 19:18:01;;;;;;;0.00;0.00;;;14.20;99.90;;;;;;6264859;23;20091;-89
2021/10/02 19:20:28;;;;;;;0.00;0.00;;;14.20;99.90;;;;;;6264755;23;20086;-89
2021/10/02 19:22:55;;;;;;;0.08;0.08;;;14.20;99.90;;;;;;6264389;23;20016;-91
2021/10/02 19:25:25;;;;;;;0.00;0.00;;;14.20;99.90;;;;;;6264869;23;20012;-90
2021/10/02 19:27:55;;;;;;;0.00;0.00;;;13.90;99.90;;;;;;6263973;23;20012;-91
2021/10/02 19:31:25;;;;;;;0.13;0.10;;;14.20;99.90;;;;;;6264843;23;20019;-92
2021/10/02 19:33:54;;;;;;;0.00;0.00;;;14.20;99.90;;;;;;6264864;23;20022;-92
2021/10/02 19:36:33;;;;;;;0.00;0.00;;;14.20;99.90;;;;;;6265159;23;20015;-92
2021/10/02 19:39:03;;;;;;;0.00;0.00;;;14.10;99.90;;;;;;6239382;23;20571;-92
2021/10/02 19:42:00;;;;;;;0.00;0.00;;;13.80;99.90;;;;;;6264745;23;20009;-93
2021/10/02 19:44:39;;;;;;;0.00;0.00;;;14.10;99.90;;;;;;6264816;23;20040;-92
2021/10/02 19:47:15;;;;;;;0.00;0.00;;;14.00;99.90;;;;;;6263870;23;20012;-92
2021/10/02 19:49:57;;;;;;;;;;;;;;;;;;;;;
2021/10/02 19:53:00;;;;;;;0.00;0.00;;;13.90;99.90;;;;;;6268614;23;20509;-93
2021/10/02 19:55:53;;;;;;;0.00;0.00;;;13.90;99.90;;;;;;6259611;23;20008;-93
2021/10/02 20:01:39;;;;;;;0.00;0.00;;;13.40;99.90;;;;;;6267532;23;20070;-92
2021/10/02 20:04:20;;;;;;;0.10;0.00;;;13.90;99.90;;;;;;6262928;23;20016;-92
2021/10/02 20:07:28;;;;;;;0.00;0.00;;;13.60;99.90;;;;;;6242042;23;20432;-94
2021/10/02 20:09:58;;;;;;;0.00;0.00;;;13.60;99.90;;;;;;6263600;23;20024;-92
2021/10/02 20:12:44;;;;;;;0.00;0.00;;;13.80;99.90;;;;;;6239878;23;20023;-92
2021/10/02 20:15:11;;;;;;;0.00;0.00;;;13.80;99.90;;;;;;6264357;23;20440;-93
2021/10/02 20:17:47;;;;;;;0.00;0.00;;;13.80;99.90;;;;;;6263965;23;20090;-93
2021/10/02 20:20:15;;;;;;;0.00;0.00;;;13.80;99.90;;;;;;6263240;23;20103;-91
2021/10/02 20:23:05;;;;;;;0.00;0.00;;;13.80;99.90;;;;;;6264142;23;20062;-92
2021/10/02 20:25:46;;;;;;;0.20;0.20;;;13.80;99.90;;;;;;6263080;23;20336;-92
2021/10/02 20:28:26;;;;;;;;;;;;;;;;;;;;;
2021/10/02 20:30:59;;;;;;;0.00;0.00;;;13.80;99.90;;;;;;6288856;23;20091;-91
2021/10/02 20:33:39;;;;;;;0.00;0.00;;;13.40;99.90;;;;;;6263053;23;20340;-91
2021/10/02 20:36:06;;;;;;;0.10;0.10;;;13.80;99.90;;;;;;6264006;23;20012;-90
2021/10/02 20:38:46;;;;;;;0.00;0.00;;;13.80;99.90;;;;;;6264659;23;20333;-90
2021/10/02 20:41:27;;;;;;;0.00;0.00;;;13.80;99.90;;;;;;6263188;23;20023;-92
2021/10/02 20:44:00;;;;;;;0.00;0.00;;;13.80;99.90;;;;;;6263911;23;20023;-93
2021/10/02 20:46:30;;;;;;;0.00;0.00;;;13.80;99.90;;;;;;6262152;23;20019;-92
2021/10/02 20:48:57;;;;;;;0.00;0.00;;;13.80;99.90;;;;;;6263082;23;20078;-91
2021/10/02 20:51:23;;;;;;;0.10;0.10;;;13.80;99.90;;;;;;6237699;23;20012;-94
2021/10/02 20:53:51;;;;;;;0.00;0.00;;;13.90;99.90;;;;;;6264336;23;20016;-95
2021/10/02 20:56:24;;;;;;;0.00;0.00;;;13.90;99.90;;;;;;6238142;23;20011;-95
2021/10/02 20:58:51;;;;;;;0.10;0.10;;;13.80;99.90;;;;;;6240087;23;20086;-94
2021/10/02 21:01:21;;;;;;;0.00;0.00;;;13.90;99.90;;;;;;6264037;23;20012;-94
2021/10/02 21:03:51;;;;;;;0.00;0.00;;;13.50;99.90;;;;;;6264197;23;20340;-94
2021/10/02 21:06:19;;;;;;;0.00;0.00;;;13.90;99.90;;;;;;6263192;23;20023;-92
2021/10/02 21:08:49;;;;;;;0.32;0.30;;;13.90;99.90;;;;;;6263949;23;20066;-94
2021/10/02 21:11:32;;;;;;;0.10;0.10;;;13.90;99.90;;;;;;6244199;23;20019;-92
2021/10/02 21:14:02;;;;;;;0.00;0.00;;;13.90;99.90;;;;;;6263378;23;20016;-92
2021/10/02 21:16:41;;;;;;;0.00;0.00;;;13.90;99.90;;;;;;6262606;23;20016;-93
2021/10/02 21:19:11;;;;;;;0.03;0.03;;;14.00;99.90;;;;;;6263278;23;20039;-92
2021/10/02 21:21:41;;;;;;;0.10;0.10;;;13.90;99.90;;;;;;6262926;23;20091;-91
2021/10/02 21:24:15;;;;;;;0.00;0.00;;;14.00;99.90;;;;;;6239480;23;20016;-93
2021/10/02 21:26:48;;;;;;;0.10;0.10;;;14.00;99.90;;;;;;6263490;23;20020;-92
2021/10/02 21:29:21;;;;;;;0.00;0.00;;;14.00;99.90;;;;;;6263991;23;20062;-95
2021/10/02 21:31:51;;;;;;;0.00;0.00;;;14.10;99.90;;;;;;6263540;23;20054;-93
2021/10/02 21:34:19;;;;;;;0.00;0.00;;;14.10;99.90;;;;;;6263582;23;20504;-96
2021/10/02 21:36:47;;;;;;;0.00;0.00;;;14.10;99.90;;;;;;6266250;23;20012;-95
2021/10/02 21:39:15;;;;;;;0.00;0.00;;;14.10;99.90;;;;;;6265075;23;20081;-91
2021/10/02 21:41:48;;;;;;;0.00;0.00;;;14.10;99.90;;;;;;6263583;23;20096;-91
2021/10/02 21:44:31;;;;;;;0.00;0.00;;;14.10;99.90;;;;;;6263426;23;20016;-91
2021/10/02 21:46:58;;;;;;;0.10;0.10;;;14.20;99.90;;;;;;6238106;23;20016;-90
2021/10/02 21:49:33;;;;;;;0.00;0.00;;;14.20;99.90;;;;;;6263724;23;20020;-92
2021/10/02 21:52:01;;;;;;;0.05;0.05;;;14.30;99.90;;;;;;6263520;23;20012;-90
2021/10/02 21:54:31;;;;;;;0.00;0.00;;;14.20;99.90;;;;;;6263587;23;20008;-93
2021/10/02 21:57:00;;;;;;;0.00;0.00;;;14.30;99.90;;;;;;6262865;23;20102;-91
2021/10/02 21:59:35;;;;;;;0.00;0.00;;;14.30;99.90;;;;;;6263771;23;20016;-92
2021/10/02 22:02:03;;;;;;;0.00;0.00;;;14.30;99.90;;;;;;6263399;23;20016;-92
2021/10/02 22:04:31;;;;;;;0.00;0.00;;;14.30;99.90;;;;;;6263283;23;20051;-93
2021/10/02 22:07:06;;;;;;;0.00;0.00;;;14.30;99.90;;;;;;6263247;23;20050;-93
2021/10/02 22:09:39;;;;;;;;;;;14.50;99.90;;;;;;6264356;23;20369;-96
2021/10/02 22:12:27;;;;;;;0.30;0.20;;;14.40;99.90;;;;;;6240148;23;19912;-93
2021/10/02 22:15:00;;;;;;;0.32;0.32;;;14.40;99.90;;;;;;6265448;23;20337;-94
2021/10/02 22:17:34;;;;;;;0.00;0.00;;;14.40;99.90;;;;;;6265191;23;20008;-93
2021/10/02 22:20:09;;;;;;;0.00;0.00;;;14.50;99.90;;;;;;6241686;23;20038;-91
2021/10/02 22:22:41;;;;;;;0.00;0.00;;;14.50;99.90;;;;;;6265957;23;20016;-95
2021/10/02 22:25:12;;;;;;;0.10;0.10;;;14.50;99.90;;;;;;6241285;23;20369;-94
2021/10/02 22:27:40;;;;;;;0.65;0.20;;;14.50;99.90;;;;;;6265770;23;20513;-94
2021/10/02 22:30:11;;;;;;;0.00;0.00;;;14.50;99.90;;;;;;6264868;23;20405;-93
2021/10/02 22:32:41;;;;;;;0.00;0.00;;;14.50;99.90;;;;;;6265307;23;20437;-93
2021/10/02 22:35:08;;;;;;;0.00;0.00;;;14.50;99.90;;;;;;6264926;23;20099;-93
2021/10/02 22:37:35;;;;;;;0.00;0.00;;;14.50;99.90;;;;;;6265766;23;20023;-92
2021/10/02 22:40:27;;;;;;;0.00;0.00;;;14.50;99.90;;;;;;6265144;23;20012;-93
2021/10/02 22:42:55;;;;;;;0.00;0.00;;;14.50;99.90;;;;;;6265056;23;20050;-92
2021/10/02 22:45:22;;;;;;;1.85;0.32;;;14.50;99.90;;;;;;6265145;23;20065;-94
2021/10/02 22:47:50;;;;;;;0.03;0.03;;;14.60;99.90;;;;;;6265252;23;20508;-91
2021/10/02 22:50:25;;;;;;;0.00;0.00;;;14.70;99.90;;;;;;6264639;23;20019;-92
2021/10/02 22:52:58;;;;;;;0.00;0.00;;;14.70;99.90;;;;;;6265383;23;20086;-92
2021/10/02 22:55:27;;;;;;;0.08;0.08;;;14.70;99.90;;;;;;6240747;23;20016;-94
2021/10/02 22:58:01;;;;;;;0.25;0.20;;;14.70;99.90;;;;;;6265169;23;20008;-92
2021/10/02 23:00:30;;;;;;;0.10;0.10;;;14.60;99.90;;;;;;6264818;23;20016;-93
2021/10/02 23:02:58;;;;;;;0.00;0.00;;;14.60;99.90;;;;;;6264720;22;20016;-92
2021/10/02 23:05:26;;;;;;;0.00;0.00;;;14.60;99.90;;;;;;6264489;23;20016;-93
2021/10/02 23:07:53;;;;;;;0.03;0.03;;;14.60;99.90;;;;;;6264853;23;20023;-95
2021/10/02 23:10:23;;;;;;;0.00;0.00;;;14.60;99.90;;;;;;6264638;23;20012;-94
2021/10/02 23:12:53;;;;;;;0.00;0.00;;;14.60;99.90;;;;;;6264643;23;20119;-93
2021/10/02 23:18:11;;;;;;;0.00;0.00;;;14.60;99.90;;;;;;6290154;23;20368;-96
2021/10/02 23:20:42;;;;;;;0.00;0.00;;;14.60;99.90;;;;;;6266739;23;20074;-93
2021/10/02 23:23:14;;;;;;;0.00;0.00;;;14.60;99.90;;;;;;6265058;23;20012;-95
2021/10/02 23:25:54;;;;;;;0.00;0.00;;;14.60;99.90;;;;;;6265243;23;20447;-96
2021/10/02 23:28:27;;;;;;;0.00;0.00;;;14.70;99.90;;;;;;6243524;23;20442;-94
2021/10/02 23:30:59;;;;;;;0.00;0.00;;;14.60;99.90;;;;;;6264801;23;20098;-95
2021/10/02 23:33:26;;;;;;;0.00;0.00;;;14.60;99.90;;;;;;6265363;23;20012;-96
2021/10/02 23:35:58;;;;;;;0.00;0.00;;;14.60;99.90;;;;;;6267264;23;20401;-95
2021/10/02 23:38:27;;;;;;;0.00;0.00;;;14.60;99.90;;;;;;6265460;23;20047;-92
2021/10/02 23:40:59;;;;;;;0.00;0.00;;;14.60;99.90;;;;;;6266292;23;20016;-96
2021/10/02 23:43:28;;;;;;;0.00;0.00;;;14.60;99.90;;;;;;6269075;23;20024;-96
2021/10/02 23:46:09;;;;;;;0.00;0.00;;;14.60;99.90;;;;;;6264746;23;20464;-90
2021/10/02 23:48:36;;;;;;;0.00;0.00;;;14.70;99.90;;;;;;6264760;23;20455;-91
2021/10/02 23:51:09;;;;;;;0.00;0.00;;;14.70;99.90;;;;;;6265311;23;20012;-91
2021/10/02 23:53:38;;;;;;;0.00;0.00;;;14.70;99.90;;;;;;6264697;23;20019;-90
2021/10/02 23:56:05;;;;;;;0.00;0.00;;;14.80;99.90;;;;;;6264036;23;20007;-91
2021/10/02 23:58:39;;;;;;;0.00;0.00;;;14.80;99.90;;;;;;6264369;23;20012;-89
